createdAt,value
2022-08-22T00:01:10.788Z,7.90
2022-08-22T00:02:52.802Z,4.90
2022-08-22T00:02:58.276Z,4.50
2022-08-22T00:03:12.733Z,7.60
2022-08-22T00:03:59.752Z,8.80
2022-08-22T00:06:41.668Z,8.30
2022-08-22T00:09:33.853Z,8.90
2022-08-22T00:12:04.769Z,8.50
2022-08-22T00:14:46.045Z,8.00
2022-08-22T00:17:49.358Z,8.10
2022-08-22T00:20:28.109Z,8.60
2022-08-22T00:23:18.605Z,7.80
2022-08-22T00:25:52.439Z,8.40
2022-08-22T00:28:44.458Z,8.60
2022-08-22T00:31:34.053Z,8.40
2022-08-22T00:34:17.419Z,8.30
2022-08-22T00:36:56.758Z,8.80
2022-08-22T00:39:36.723Z,8.40
2022-08-22T00:42:15.190Z,7.80
2022-08-22T00:45:22.383Z,9.60
2022-08-22T00:48:15.118Z,8.40
2022-08-22T00:50:49.331Z,7.20
2022-08-22T00:53:38.094Z,7.50
2022-08-22T00:56:36.303Z,7.90
2022-08-22T00:59:31.626Z,8.40
2022-08-22T01:02:30.448Z,8.10
2022-08-22T01:05:07.652Z,7.60
2022-08-22T01:07:38.624Z,8.00
2022-08-22T01:10:24.883Z,8.00
2022-08-22T01:13:10.780Z,8.20
2022-08-22T01:15:40.751Z,8.20
2022-08-22T01:18:39.946Z,8.80
2022-08-22T01:21:29.101Z,8.30
2022-08-22T01:24:24.826Z,8.60
2022-08-22T01:27:07.903Z,9.30
2022-08-22T01:29:47.312Z,9.00
2022-08-22T01:32:34.334Z,9.00
2022-08-22T01:35:34.555Z,8.70
2022-08-22T01:38:44.095Z,8.80
2022-08-22T01:41:38.527Z,9.70
2022-08-22T01:44:24.906Z,9.30
2022-08-22T01:47:24.808Z,8.90
2022-08-22T01:50:21.553Z,9.60
2022-08-22T01:52:59.393Z,9.70
2022-08-22T01:55:35.204Z,9.30
2022-08-22T01:58:15.833Z,9.40
2022-08-22T02:01:28.873Z,9.80
2022-08-22T02:04:21.645Z,9.50
2022-08-22T02:07:07.227Z,9.60
2022-08-22T02:09:53.717Z,10.00
2022-08-22T02:12:53.683Z,9.90
2022-08-22T02:15:31.141Z,10.70
2022-08-22T02:18:04.943Z,10.00
2022-08-22T02:20:39.549Z,11.50
2022-08-22T02:23:44.445Z,10.60
2022-08-22T02:26:28.351Z,10.20
2022-08-22T02:28:59.391Z,10.90
2022-08-22T02:31:46.419Z,10.50
2022-08-22T02:34:36.918Z,10.70
2022-08-22T02:37:21.891Z,10.80
2022-08-22T02:40:34.050Z,10.50
2022-08-22T02:43:07.905Z,10.00
2022-08-22T02:45:39.229Z,10.20
2022-08-22T02:48:29.971Z,10.60
2022-08-22T02:51:13.458Z,10.80
2022-08-22T02:53:47.523Z,11.70
2022-08-22T02:56:35.836Z,11.50
2022-08-22T02:59:27.349Z,11.30
2022-08-22T03:01:56.944Z,11.40
2022-08-22T03:04:47.653Z,12.00
2022-08-22T03:10:16.761Z,12.40
2022-08-22T03:13:11.579Z,12.90
2022-08-22T03:16:09.452Z,12.50
2022-08-22T03:19:18.318Z,13.70
2022-08-22T03:21:52.986Z,13.40
2022-08-22T03:24:31.500Z,13.80
2022-08-22T03:27:02.085Z,12.70
2022-08-22T03:29:53.360Z,12.80
2022-08-22T03:32:24.582Z,12.50
2022-08-22T03:35:00.745Z,13.00
2022-08-22T03:37:43.792Z,12.80
2022-08-22T03:40:44.299Z,13.00
2022-08-22T03:43:40.323Z,12.80
2022-08-22T03:46:30.310Z,11.60
2022-08-22T03:49:32.402Z,12.50
2022-08-22T03:52:18.776Z,12.60
2022-08-22T03:54:55.531Z,11.80
2022-08-22T03:57:58.245Z,13.20
2022-08-22T04:00:32.203Z,12.60
2022-08-22T04:03:12.090Z,12.50
2022-08-22T04:05:55.027Z,13.10
2022-08-22T04:09:01.992Z,12.60
2022-08-22T04:12:20.957Z,12.00
2022-08-22T04:15:27.054Z,11.10
2022-08-22T04:18:16.126Z,11.90
2022-08-22T04:21:19.715Z,11.00
2022-08-22T04:23:59.428Z,10.80
2022-08-22T04:26:33.386Z,12.00
2022-08-22T04:29:28.649Z,11.30
2022-08-22T04:32:07.997Z,10.80
2022-08-22T04:34:45.676Z,10.50
2022-08-22T04:37:30.752Z,11.40
2022-08-22T04:40:46.785Z,11.30
2022-08-22T04:43:48.083Z,10.80
2022-08-22T04:46:22.403Z,11.60
2022-08-22T04:48:57.078Z,10.30
2022-08-22T04:51:54.214Z,11.40
2022-08-22T04:54:43.503Z,11.90
2022-08-22T04:57:23.432Z,11.90
2022-08-22T04:59:52.720Z,11.90
2022-08-22T05:02:24.848Z,11.30
2022-08-22T05:05:04.385Z,11.70
2022-08-22T05:07:39.880Z,12.30
2022-08-22T05:10:16.861Z,11.40
2022-08-22T05:12:53.032Z,10.90
2022-08-22T05:15:27.829Z,11.40
2022-08-22T05:18:00.571Z,11.40
2022-08-22T05:20:30.247Z,11.60
2022-08-22T05:23:06.125Z,11.30
2022-08-22T05:25:49.049Z,11.50
2022-08-22T05:28:39.079Z,10.70
2022-08-22T05:31:14.991Z,10.70
2022-08-22T05:33:50.126Z,11.60
2022-08-22T05:36:25.322Z,11.20
2022-08-22T05:39:00.652Z,11.00
2022-08-22T05:41:36.110Z,11.50
2022-08-22T05:44:07.540Z,11.50
2022-08-22T05:46:44.536Z,11.80
2022-08-22T05:49:29.590Z,11.20
2022-08-22T05:52:16.417Z,11.50
2022-08-22T05:54:53.964Z,10.40
2022-08-22T05:57:33.664Z,10.20
2022-08-22T06:00:11.130Z,11.00
2022-08-22T06:02:42.684Z,10.70
2022-08-22T06:05:12.409Z,9.60
2022-08-22T06:07:50.482Z,10.40
2022-08-22T06:10:18.687Z,10.80
2022-08-22T06:13:21.985Z,10.10
2022-08-22T06:16:00.228Z,11.10
2022-08-22T06:18:31.139Z,10.00
2022-08-22T06:21:03.385Z,9.80
2022-08-22T06:23:58.792Z,7.70
2022-08-22T06:26:34.759Z,8.90
2022-08-22T06:29:06.855Z,8.60
2022-08-22T06:31:55.477Z,8.70
2022-08-22T06:34:36.027Z,7.90
2022-08-22T06:39:40.623Z,7.20
2022-08-22T06:42:16.498Z,7.30
2022-08-22T06:44:50.436Z,7.60
2022-08-22T06:47:37.252Z,8.10
2022-08-22T06:50:17.981Z,9.00
2022-08-22T06:53:00.564Z,9.20
2022-08-22T06:55:30.712Z,9.20
2022-08-22T06:58:26.778Z,9.30
2022-08-22T07:01:12.359Z,9.10
2022-08-22T07:03:46.687Z,9.40
2022-08-22T07:06:23.022Z,9.90
2022-08-22T07:08:55.125Z,11.10
2022-08-22T07:11:28.963Z,10.50
2022-08-22T07:14:09.651Z,10.70
2022-08-22T07:16:48.323Z,11.60
2022-08-22T07:19:30.001Z,11.60
2022-08-22T07:22:09.847Z,11.80
2022-08-22T07:24:44.696Z,12.50
2022-08-22T07:27:15.930Z,12.80
2022-08-22T07:29:56.126Z,13.20
2022-08-22T07:32:42.188Z,11.70
2022-08-22T07:35:30.424Z,11.70
2022-08-22T07:38:27.357Z,11.60
2022-08-22T07:41:07.061Z,12.50
2022-08-22T07:43:40.795Z,13.00
2022-08-22T07:46:20.824Z,12.30
2022-08-22T07:49:23.837Z,11.80
2022-08-22T07:51:59.358Z,11.80
2022-08-22T07:54:36.889Z,11.70
2022-08-22T07:57:23.417Z,10.40
2022-08-22T07:59:56.692Z,10.80
2022-08-22T08:02:26.564Z,10.30
2022-08-22T08:05:00.318Z,10.80
2022-08-22T08:07:30.335Z,10.90
2022-08-22T08:12:42.412Z,10.40
2022-08-22T08:15:20.180Z,10.20
2022-08-22T08:18:00.718Z,9.70
2022-08-22T08:20:30.389Z,10.00
2022-08-22T08:22:59.473Z,9.00
2022-08-22T08:25:32.342Z,8.70
2022-08-22T08:28:19.459Z,7.40
2022-08-22T08:30:55.530Z,6.90
2022-08-22T08:33:28.255Z,7.30
2022-08-22T08:36:04.145Z,7.80
2022-08-22T08:38:45.119Z,7.90
2022-08-22T08:44:03.775Z,5.20
2022-08-22T08:46:59.628Z,4.80
2022-08-22T08:49:43.124Z,5.50
2022-08-22T08:52:33.072Z,5.20
2022-08-22T08:55:00.871Z,5.00
2022-08-22T08:57:41.828Z,5.60
2022-08-22T09:00:44.480Z,5.20
2022-08-22T09:06:07.669Z,5.80
2022-08-22T09:08:56.478Z,4.80
2022-08-22T09:11:40.484Z,4.90
2022-08-22T09:14:12.497Z,4.80
2022-08-22T09:17:00.589Z,5.10
2022-08-22T09:23:12.910Z,4.80
2022-08-22T09:25:50.177Z,5.40
2022-08-22T09:28:37.287Z,5.60
2022-08-22T09:31:47.439Z,5.50
2022-08-22T09:34:47.697Z,5.80
2022-08-22T09:37:40.972Z,6.10
2022-08-22T09:43:22.793Z,5.10
2022-08-22T09:46:14.737Z,5.30
2022-08-22T09:49:00.945Z,5.20
2022-08-22T09:51:46.983Z,5.40
2022-08-22T09:54:31.596Z,5.70
2022-08-22T09:57:34.027Z,5.50
2022-08-22T10:00:09.779Z,5.00
2022-08-22T10:02:50.370Z,5.10
2022-08-22T10:05:40.614Z,5.00
2022-08-22T10:08:38.507Z,5.00
2022-08-22T10:11:23.784Z,7.80
2022-08-22T10:13:57.527Z,5.30
2022-08-22T10:16:33.319Z,5.90
2022-08-22T10:19:43.038Z,5.40
2022-08-22T10:22:23.435Z,6.50
2022-08-22T10:24:51.287Z,5.80
2022-08-22T10:27:39.749Z,5.30
2022-08-22T10:30:21.751Z,5.00
2022-08-22T10:33:05.327Z,5.40
2022-08-22T10:35:58.140Z,6.80
2022-08-22T10:38:32.472Z,6.60
2022-08-22T10:41:18.571Z,5.40
2022-08-22T10:43:56.415Z,5.40
2022-08-22T10:46:53.264Z,5.40
2022-08-22T10:49:51.119Z,5.30
2022-08-22T10:52:30.341Z,5.30
2022-08-22T10:55:12.586Z,5.40
2022-08-22T10:58:00.652Z,5.00
2022-08-22T11:00:58.446Z,5.50
2022-08-22T11:03:53.906Z,6.00
2022-08-22T11:06:26.320Z,5.90
2022-08-22T11:09:06.423Z,5.40
2022-08-22T11:12:12.721Z,6.30
2022-08-22T11:15:28.458Z,7.00
2022-08-22T11:18:20.654Z,6.80
2022-08-22T11:21:14.311Z,6.60
2022-08-22T11:24:08.672Z,8.50
2022-08-22T11:27:12.955Z,6.80
2022-08-22T11:29:41.161Z,6.30
2022-08-22T11:35:11.954Z,5.90
2022-08-22T11:37:43.350Z,6.10
2022-08-22T11:40:23.581Z,7.40
2022-08-22T11:42:59.101Z,5.30
2022-08-22T11:45:45.799Z,6.00
2022-08-22T11:48:35.046Z,6.00
2022-08-22T11:51:24.658Z,5.40
2022-08-22T11:54:11.970Z,7.50
2022-08-22T11:56:51.589Z,5.70
2022-08-22T11:59:43.201Z,5.90
2022-08-22T12:02:56.417Z,5.80
2022-08-22T12:05:32.417Z,4.90
2022-08-22T12:08:14.079Z,5.10
2022-08-22T12:10:56.084Z,3.20
2022-08-22T12:13:50.360Z,3.50
2022-08-22T12:16:21.816Z,3.50
2022-08-22T12:19:13.291Z,4.10
2022-08-22T12:21:44.230Z,3.60
2022-08-22T12:24:36.255Z,2.90
2022-08-22T12:27:33.565Z,3.60
2022-08-22T12:30:26.212Z,2.70
2022-08-22T12:32:57.339Z,3.30
2022-08-22T12:35:43.522Z,3.20
2022-08-22T12:38:27.914Z,3.50
2022-08-22T12:41:09.682Z,3.00
2022-08-22T12:44:17.046Z,3.00
2022-08-22T12:47:14.253Z,2.50
2022-08-22T12:50:00.602Z,2.90
2022-08-22T12:53:04.886Z,2.90
2022-08-22T12:55:57.271Z,2.70
2022-08-22T12:58:59.065Z,3.10
2022-08-22T13:01:34.620Z,2.90
2022-08-22T13:04:12.639Z,3.00
2022-08-22T13:07:02.082Z,2.70
2022-08-22T13:09:43.401Z,2.80
2022-08-22T13:12:25.177Z,2.70
2022-08-22T13:15:01.667Z,2.70
2022-08-22T13:17:31.152Z,3.10
2022-08-22T13:20:11.630Z,3.30
2022-08-22T13:22:45.623Z,3.60
2022-08-22T13:25:29.556Z,3.30
2022-08-22T13:28:04.159Z,4.10
2022-08-22T13:30:41.275Z,3.60
2022-08-22T13:33:26.325Z,4.20
2022-08-22T13:36:06.316Z,4.10
2022-08-22T13:38:46.304Z,5.20
2022-08-22T13:41:30.092Z,5.20
2022-08-22T13:44:16.406Z,4.10
2022-08-22T13:47:13.112Z,4.90
2022-08-22T13:52:32.903Z,4.90
2022-08-22T13:55:16.699Z,6.20
2022-08-22T13:58:24.987Z,4.10
2022-08-22T14:00:57.356Z,4.10
2022-08-22T14:03:35.383Z,4.50
2022-08-22T14:06:37.494Z,4.50
2022-08-22T14:09:32.619Z,4.20
2022-08-22T14:12:16.457Z,3.00
2022-08-22T14:14:49.211Z,4.30
2022-08-22T14:17:25.363Z,3.80
2022-08-22T14:20:02.920Z,4.10
2022-08-22T14:22:37.654Z,3.60
2022-08-22T14:25:19.399Z,5.40
2022-08-22T14:28:01.068Z,4.10
2022-08-22T14:30:54.292Z,4.00
2022-08-22T14:33:32.256Z,3.40
2022-08-22T14:36:11.912Z,3.50
2022-08-22T14:38:49.794Z,3.60
2022-08-22T14:41:19.796Z,3.50
2022-08-22T14:43:59.567Z,3.50
2022-08-22T14:46:37.560Z,3.40
2022-08-22T14:49:19.340Z,3.10
2022-08-22T14:51:51.222Z,3.20
2022-08-22T14:54:22.018Z,2.80
2022-08-22T14:56:53.159Z,3.20
2022-08-22T14:59:44.164Z,3.90
2022-08-22T15:02:32.777Z,3.20
2022-08-22T15:05:13.327Z,3.00
2022-08-22T15:07:42.030Z,3.40
2022-08-22T15:10:46.045Z,2.70
2022-08-22T15:13:21.174Z,2.40
2022-08-22T15:15:55.825Z,2.80
2022-08-22T15:18:28.004Z,2.50
2022-08-22T15:21:08.667Z,2.40
2022-08-22T15:23:44.787Z,2.70
2022-08-22T15:26:23.130Z,2.60
2022-08-22T15:29:02.108Z,2.50
2022-08-22T15:31:33.892Z,2.70
2022-08-22T15:34:44.433Z,2.70
2022-08-22T15:37:18.314Z,2.70
2022-08-22T15:40:11.522Z,2.70
2022-08-22T15:42:47.626Z,2.80
2022-08-22T15:45:33.772Z,3.30
2022-08-22T15:48:09.306Z,2.70
2022-08-22T15:50:42.125Z,2.80
2022-08-22T15:53:17.543Z,2.50
2022-08-22T15:56:15.419Z,2.60
2022-08-22T15:58:49.037Z,2.90
2022-08-22T16:01:24.265Z,2.60
2022-08-22T16:04:03.517Z,2.40
2022-08-22T16:06:54.929Z,2.60
2022-08-22T16:09:29.211Z,2.80
2022-08-22T16:12:01.934Z,2.60
2022-08-22T16:14:32.942Z,2.70
2022-08-22T16:17:07.148Z,2.60
2022-08-22T16:19:36.086Z,2.70
2022-08-22T16:22:08.365Z,2.40
2022-08-22T16:24:56.975Z,2.90
2022-08-22T16:27:27.084Z,3.00
2022-08-22T16:30:12.610Z,2.60
2022-08-22T16:32:53.286Z,2.60
2022-08-22T16:36:03.278Z,3.40
2022-08-22T16:38:41.038Z,3.30
2022-08-22T16:41:35.584Z,3.30
2022-08-22T16:44:40.679Z,4.20
2022-08-22T16:47:32.722Z,3.80
2022-08-22T16:50:25.584Z,2.60
2022-08-22T16:53:02.349Z,3.10
2022-08-22T16:55:30.194Z,3.90
2022-08-22T16:58:21.442Z,2.90
2022-08-22T17:01:14.559Z,2.70
2022-08-22T17:04:19.848Z,3.00
2022-08-22T17:07:18.570Z,2.50
2022-08-22T17:10:08.955Z,2.80
2022-08-22T17:12:51.735Z,2.80
2022-08-22T17:15:28.418Z,2.60
2022-08-22T17:18:18.279Z,3.10
2022-08-22T17:20:58.307Z,2.80
2022-08-22T17:23:56.476Z,2.90
2022-08-22T17:26:37.862Z,3.00
2022-08-22T17:29:42.738Z,3.10
2022-08-22T17:32:37.487Z,3.70
2022-08-22T17:35:16.667Z,3.50
2022-08-22T17:37:47.607Z,3.60
2022-08-22T17:40:51.310Z,3.80
2022-08-22T17:43:57.718Z,4.60
2022-08-22T17:46:44.323Z,5.80
2022-08-22T17:49:12.084Z,5.20
2022-08-22T17:52:01.829Z,5.70
2022-08-22T17:54:40.761Z,6.20
2022-08-22T17:57:13.128Z,6.70
2022-08-22T18:00:03.140Z,6.80
2022-08-22T18:02:40.708Z,6.70
2022-08-22T18:05:19.265Z,6.80
2022-08-22T18:08:08.889Z,6.80
2022-08-22T18:10:54.059Z,7.00
2022-08-22T18:13:36.506Z,6.40
2022-08-22T18:16:07.829Z,6.90
2022-08-22T18:18:46.527Z,7.10
2022-08-22T18:21:26.942Z,6.30
2022-08-22T18:23:59.792Z,6.60
2022-08-22T18:26:33.437Z,7.10
2022-08-22T18:29:18.617Z,6.70
2022-08-22T18:31:49.702Z,6.80
2022-08-22T18:34:40.737Z,7.00
2022-08-22T18:37:37.205Z,7.70
2022-08-22T18:40:25.402Z,7.10
2022-08-22T18:43:06.190Z,6.40
2022-08-22T18:45:45.861Z,7.20
2022-08-22T18:48:26.677Z,6.70
2022-08-22T18:51:23.855Z,7.40
2022-08-22T18:54:04.000Z,7.40
2022-08-22T18:56:50.431Z,8.00
2022-08-22T18:59:37.093Z,7.90
2022-08-22T19:02:26.685Z,7.30
2022-08-22T19:05:16.655Z,7.20
2022-08-22T19:08:21.585Z,7.40
2022-08-22T19:11:15.361Z,6.90
2022-08-22T19:14:14.032Z,7.70
2022-08-22T19:16:54.180Z,9.20
2022-08-22T19:20:08.559Z,9.00
2022-08-22T19:22:37.257Z,7.80
2022-08-22T19:25:18.256Z,8.60
2022-08-22T19:30:34.823Z,8.40
2022-08-22T19:33:05.474Z,8.00
2022-08-22T19:35:44.766Z,8.50
2022-08-22T19:38:32.849Z,8.50
2022-08-22T19:41:01.766Z,8.20
2022-08-22T19:43:35.659Z,8.00
2022-08-22T19:46:07.652Z,8.20
2022-08-22T19:48:46.875Z,8.60
2022-08-22T19:51:26.794Z,8.40
2022-08-22T19:54:06.653Z,9.20
2022-08-22T19:56:51.114Z,8.10
2022-08-22T19:59:31.970Z,7.80
2022-08-22T20:02:18.174Z,6.40
2022-08-22T20:05:01.612Z,6.30
2022-08-22T20:07:39.308Z,6.90
2022-08-22T20:10:16.371Z,6.20
2022-08-22T20:12:59.676Z,6.30
2022-08-22T20:15:30.585Z,5.70
2022-08-22T20:21:00.119Z,5.80
2022-08-22T20:23:32.681Z,6.20
2022-08-22T20:26:01.324Z,6.70
2022-08-22T20:28:48.918Z,6.60
2022-08-22T20:31:24.523Z,6.40
2022-08-22T20:33:59.141Z,6.80
2022-08-22T20:36:28.620Z,6.40
2022-08-22T20:39:09.491Z,6.40
2022-08-22T20:41:41.073Z,5.50
2022-08-22T20:44:21.803Z,6.00
2022-08-22T20:47:02.502Z,6.00
2022-08-22T20:49:43.568Z,5.40
2022-08-22T20:52:32.736Z,5.80
2022-08-22T20:55:13.236Z,5.30
2022-08-22T21:00:33.618Z,4.00
2022-08-22T21:03:16.010Z,4.00
2022-08-22T21:05:46.074Z,4.20
2022-08-22T21:08:19.615Z,3.80
2022-08-22T21:11:16.719Z,3.60
2022-08-22T21:13:44.716Z,4.10
2022-08-22T21:16:18.598Z,4.30
2022-08-22T21:18:52.104Z,3.90
2022-08-22T21:21:22.882Z,4.00
2022-08-22T21:23:56.374Z,4.10
2022-08-22T21:26:29.962Z,4.30
2022-08-22T21:29:03.875Z,4.20
2022-08-22T21:31:52.920Z,4.50
2022-08-22T21:34:25.278Z,4.30
2022-08-22T21:36:59.713Z,3.90
2022-08-22T21:39:35.651Z,3.90
2022-08-22T21:42:03.413Z,4.10
2022-08-22T21:44:31.435Z,4.20
2022-08-22T21:47:31.107Z,4.90
2022-08-22T21:50:20.893Z,4.40
2022-08-22T21:53:11.937Z,4.20
2022-08-22T21:55:44.582Z,4.40
2022-08-22T21:58:36.000Z,4.50
2022-08-22T22:01:32.058Z,4.20
2022-08-22T22:04:00.534Z,4.30
2022-08-22T22:06:28.629Z,4.00
2022-08-22T22:08:56.570Z,4.30
2022-08-22T22:11:24.710Z,4.10
2022-08-22T22:13:53.526Z,3.70
2022-08-22T22:16:27.235Z,4.30
2022-08-22T22:18:55.680Z,4.30
2022-08-22T22:21:24.097Z,4.30
2022-08-22T22:23:52.599Z,4.40
2022-08-22T22:26:21.673Z,3.90
2022-08-22T22:28:50.393Z,4.00
2022-08-22T22:31:18.625Z,4.10
2022-08-22T22:33:46.594Z,4.30
2022-08-22T22:36:24.225Z,4.30
2022-08-22T22:38:53.191Z,4.10
2022-08-22T22:41:25.953Z,3.80
2022-08-22T22:43:55.487Z,3.60
2022-08-22T22:46:24.293Z,3.50
2022-08-22T22:48:53.257Z,4.10
2022-08-22T22:51:21.735Z,4.20
2022-08-22T22:53:50.318Z,4.30
2022-08-22T22:56:21.656Z,3.90
2022-08-22T22:59:01.012Z,3.90
2022-08-22T23:02:04.099Z,4.80
2022-08-22T23:04:35.506Z,4.20
2022-08-22T23:07:04.378Z,4.00
2022-08-22T23:09:37.975Z,4.10
2022-08-22T23:12:08.106Z,4.00
2022-08-22T23:14:36.680Z,3.80
2022-08-22T23:17:05.571Z,3.90
2022-08-22T23:19:34.723Z,3.90
2022-08-22T23:22:03.069Z,3.90
2022-08-22T23:24:31.863Z,4.00
2022-08-22T23:27:00.069Z,4.20
2022-08-22T23:29:28.234Z,4.10
2022-08-22T23:32:01.850Z,4.40
2022-08-22T23:34:35.192Z,4.00
2022-08-22T23:37:06.475Z,4.20
2022-08-22T23:39:36.117Z,4.10
2022-08-22T23:42:06.855Z,3.90
2022-08-22T23:44:37.464Z,4.20
2022-08-22T23:49:35.230Z,4.20
2022-08-22T23:52:04.826Z,3.90
2022-08-22T23:54:33.965Z,4.50
2022-08-22T23:57:12.254Z,3.80
2022-08-22T23:59:48.028Z,3.80
